Happy Camp, California
Current Conditions -  °F | °C
As of 3:56 AM on Saturday 01 Nov 2014 (Local Time) from KCEC Reporting Station
Clear Clear  
Wind Chill: 46°   Ceiling: Unl
Heat Index: 46°   Visibility: 10mi
Dew Point: 45°   Wind: 3mph
Humidity: 96%   Direction: 60°ENE
Pressure: 29.8"   Gusts: NA
Location:  41.79°N, 123.38°W
Report Text: KCEC 011056Z AUTO 06003KT 10SM CLR 08/07 A2980 RMK AO2 SLP092 T00780072
Loading
Personal Weather Stations






























Interactive Weather Map New forecast layout! Learn more

10-Day Weather Forecast

Advertisements
Track Severe Weather on mobile